createdAt,value
2023-03-20T00:12:57.596Z,10.97
2023-03-20T00:28:00.923Z,10.69
2023-03-20T00:43:05.056Z,10.47
2023-03-20T00:58:11.639Z,10.07
2023-03-20T01:13:27.292Z,9.91
2023-03-20T01:28:31.568Z,9.76
2023-03-20T01:43:36.055Z,9.61
2023-03-20T01:58:45.823Z,9.50
2023-03-20T02:13:53.118Z,9.22
2023-03-20T02:29:28.741Z,9.08
2023-03-20T02:44:54.139Z,8.92
2023-03-20T03:00:13.618Z,8.84
2023-03-20T03:15:25.386Z,8.81
2023-03-20T03:30:33.177Z,8.69
2023-03-20T03:45:46.684Z,8.44
2023-03-20T04:00:52.677Z,8.33
2023-03-20T04:15:56.033Z,8.19
2023-03-20T04:31:02.553Z,8.33
2023-03-20T04:46:13.910Z,8.06
2023-03-20T05:01:18.072Z,7.97
2023-03-20T05:16:21.433Z,8.23
2023-03-20T05:31:47.492Z,8.25
2023-03-20T05:47:01.212Z,8.36
2023-03-20T06:02:23.383Z,8.81
2023-03-20T06:17:32.529Z,9.37
2023-03-20T06:32:38.811Z,9.75
2023-03-20T06:47:43.505Z,10.15
2023-03-20T07:02:47.463Z,10.71
2023-03-20T07:17:51.498Z,11.58
2023-03-20T07:32:55.227Z,12.11
2023-03-20T07:47:59.945Z,12.98
2023-03-20T08:03:04.152Z,13.68
2023-03-20T08:18:07.593Z,14.12
2023-03-20T08:33:11.317Z,14.33
2023-03-20T08:48:14.528Z,14.56
2023-03-20T09:03:21.377Z,14.71
2023-03-20T09:18:25.890Z,14.40
2023-03-20T09:33:29.342Z,14.43
2023-03-20T09:48:41.214Z,14.77
2023-03-20T10:03:55.812Z,15.05
2023-03-20T10:19:06.602Z,15.45
2023-03-20T10:34:27.825Z,15.77
2023-03-20T10:49:46.360Z,15.84
2023-03-20T11:04:50.681Z,15.54
2023-03-20T11:19:53.873Z,15.20
2023-03-20T11:35:09.948Z,14.81
2023-03-20T11:50:34.667Z,14.79
2023-03-20T12:05:40.042Z,15.04
2023-03-20T12:21:08.797Z,15.11
2023-03-20T12:36:25.927Z,15.22
2023-03-20T12:51:57.593Z,15.58
2023-03-20T13:07:03.809Z,16.06
2023-03-20T13:38:30.017Z,18.22
2023-03-20T13:53:54.328Z,17.76
2023-03-20T14:08:59.112Z,20.63
2023-03-20T14:24:06.852Z,22.51
2023-03-20T14:39:34.893Z,27.08
2023-03-20T14:54:41.855Z,20.42
2023-03-20T15:09:48.624Z,19.16
2023-03-20T15:24:54.196Z,18.82
2023-03-20T15:40:01.977Z,17.51
2023-03-20T15:55:18.011Z,16.94
2023-03-20T16:10:29.306Z,16.61
2023-03-20T16:25:32.498Z,16.45
2023-03-20T16:40:37.641Z,16.29
2023-03-20T16:55:46.754Z,16.12
2023-03-20T17:10:58.711Z,15.59
2023-03-20T17:26:02.822Z,15.16
2023-03-20T17:41:13.828Z,14.94
2023-03-20T17:56:18.032Z,14.68
2023-03-20T18:11:21.857Z,14.76
2023-03-20T18:26:27.509Z,14.76
2023-03-20T18:41:33.118Z,14.74
2023-03-20T18:56:38.064Z,14.40
2023-03-20T19:11:41.694Z,14.31
2023-03-20T19:26:46.537Z,14.17
2023-03-20T19:41:51.581Z,14.06
2023-03-20T19:56:54.904Z,13.56
2023-03-20T20:11:58.718Z,13.48
2023-03-20T20:27:16.297Z,13.19
2023-03-20T20:42:21.816Z,12.91
2023-03-20T20:57:25.303Z,12.72
2023-03-20T21:12:36.603Z,12.63
2023-03-20T21:27:44.123Z,12.44
2023-03-20T21:42:49.030Z,12.44
2023-03-20T22:14:14.795Z,11.99
2023-03-20T22:44:49.894Z,11.76
2023-03-20T22:59:27.826Z,11.65
2023-03-20T23:14:44.863Z,11.49
2023-03-20T23:29:48.746Z,11.28
2023-03-20T23:44:56.406Z,11.14
